• pl
  • eng

Awiacja
Kliknij na pogrubioną czerwoną nazwę, aby odkodować depeszę. 04:31 20.08.2018
  • WIND
  • SIGNIFICANT EURO
  • SIGNIFICANT
  • SIGMET
  • AIRMET
  • TAF FC
  • TAF FT
  • METAR GG30
  • METAR GG00


METAR EPBY 200230Z VRB01KT CAVOK 15/11 Q1014 =

METAR EPGD 200230Z 24004KT CAVOK 15/14 Q1014 =

METAR EPKK 200230Z VRB01KT CAVOK 16/15 Q1017 =

METAR EPKT 200230Z VRB02KT 4000 BR NSC 16/14 Q1017 =

METAR EPLB 200230Z VRB01KT CAVOK 17/16 Q1017 =

METAR EPLL 200230Z 08001KT CAVOK 16/14 Q1016 =

METAR EPMO 200230Z VRB02KT 4100 BR NSC 16/16 Q1016 =

METAR EPPO 200230Z 16001KT CAVOK 15/11 Q1015 =

METAR EPRA 200230Z NIL=

METAR EPRZ 200230Z 00000KT CAVOK 16/16 Q1018 =

METAR EPSC 200230Z 20003KT 140V230 CAVOK 17/12 Q1014 =

METAR EPSY 200230Z NIL=

METAR EPWA 200230Z 19002KT 9999 MIFG NSC 15/15 Q1016 NOSIG=

METAR EPWR 200230Z 16002KT CAVOK 19/15 Q1015 =

METAR EPZG 200230Z 00000KT CAVOK 15/13 Q1015 =
 METAR EPSY
:Brak depeszy METAR z EPSY z dnia 20 z godziny 02:30 UTC
Awiacja.imgw.pl jest pogodowym serwisem informacyjnym
Instytutu Meteorologii i Gospodarki Wodnej Państwowego Instytutu Badawczego.
Copyright IMGW PIB 2009-2011© Wszelkie prawa zastrzeżone.